sensor_id;sensor_type;location;lat;lon;timestamp;P1;durP1;ratioP1;P2;durP2;ratioP2
47760;SDS011;33524;55.434;38.520;2024-02-28T00:01:20;9.70;;;5.37;;
47760;SDS011;33524;55.434;38.520;2024-02-28T00:03:48;12.30;;;6.47;;
47760;SDS011;33524;55.434;38.520;2024-02-28T00:06:17;11.27;;;6.60;;
47760;SDS011;33524;55.434;38.520;2024-02-28T00:08:45;11.15;;;6.45;;
47760;SDS011;33524;55.434;38.520;2024-02-28T00:11:14;11.27;;;6.20;;
47760;SDS011;33524;55.434;38.520;2024-02-28T00:13:42;9.65;;;5.90;;
47760;SDS011;33524;55.434;38.520;2024-02-28T00:16:10;11.32;;;5.53;;
47760;SDS011;33524;55.434;38.520;2024-02-28T00:18:39;12.77;;;5.43;;
47760;SDS011;33524;55.434;38.520;2024-02-28T00:21:07;8.02;;;4.50;;
47760;SDS011;33524;55.434;38.520;2024-02-28T00:23:35;9.10;;;5.22;;
47760;SDS011;33524;55.434;38.520;2024-02-28T00:26:03;9.73;;;4.95;;
47760;SDS011;33524;55.434;38.520;2024-02-28T00:28:31;8.93;;;4.97;;
47760;SDS011;33524;55.434;38.520;2024-02-28T00:30:59;9.75;;;5.40;;
47760;SDS011;33524;55.434;38.520;2024-02-28T00:33:27;8.73;;;5.07;;
47760;SDS011;33524;55.434;38.520;2024-02-28T00:35:55;9.70;;;4.80;;
47760;SDS011;33524;55.434;38.520;2024-02-28T00:38:23;9.38;;;4.65;;
47760;SDS011;33524;55.434;38.520;2024-02-28T00:40:51;8.05;;;4.93;;
47760;SDS011;33524;55.434;38.520;2024-02-28T00:43:19;7.95;;;4.95;;
47760;SDS011;33524;55.434;38.520;2024-02-28T00:45:47;7.03;;;4.40;;
47760;SDS011;33524;55.434;38.520;2024-02-28T00:48:16;7.55;;;4.57;;
47760;SDS011;33524;55.434;38.520;2024-02-28T00:50:44;7.93;;;5.12;;
47760;SDS011;33524;55.434;38.520;2024-02-28T00:53:12;9.65;;;4.45;;
47760;SDS011;33524;55.434;38.520;2024-02-28T00:55:40;8.30;;;4.80;;
47760;SDS011;33524;55.434;38.520;2024-02-28T00:58:08;9.70;;;4.78;;
47760;SDS011;33524;55.434;38.520;2024-02-28T01:00:36;7.82;;;4.87;;
47760;SDS011;33524;55.434;38.520;2024-02-28T01:03:04;8.23;;;5.22;;
47760;SDS011;33524;55.434;38.520;2024-02-28T01:05:36;7.30;;;4.15;;
47760;SDS011;33524;55.434;38.520;2024-02-28T01:08:05;9.93;;;5.68;;
47760;SDS011;33524;55.434;38.520;2024-02-28T01:10:33;8.00;;;4.65;;
47760;SDS011;33524;55.434;38.520;2024-02-28T01:13:01;7.90;;;4.43;;
47760;SDS011;33524;55.434;38.520;2024-02-28T01:15:30;7.78;;;4.75;;
47760;SDS011;33524;55.434;38.520;2024-02-28T01:17:58;8.02;;;4.72;;
47760;SDS011;33524;55.434;38.520;2024-02-28T01:20:26;9.35;;;4.43;;
47760;SDS011;33524;55.434;38.520;2024-02-28T01:22:54;8.23;;;4.75;;
47760;SDS011;33524;55.434;38.520;2024-02-28T01:25:22;7.25;;;4.18;;
47760;SDS011;33524;55.434;38.520;2024-02-28T01:27:50;8.38;;;4.95;;
47760;SDS011;33524;55.434;38.520;2024-02-28T01:30:19;9.70;;;4.47;;
47760;SDS011;33524;55.434;38.520;2024-02-28T01:32:47;9.13;;;4.87;;
47760;SDS011;33524;55.434;38.520;2024-02-28T01:35:15;8.82;;;4.85;;
47760;SDS011;33524;55.434;38.520;2024-02-28T01:37:43;10.88;;;5.12;;
47760;SDS011;33524;55.434;38.520;2024-02-28T01:40:11;7.03;;;4.35;;
47760;SDS011;33524;55.434;38.520;2024-02-28T01:42:39;7.72;;;4.43;;
47760;SDS011;33524;55.434;38.520;2024-02-28T01:45:09;6.60;;;3.67;;
47760;SDS011;33524;55.434;38.520;2024-02-28T01:50:10;7.47;;;4.28;;
47760;SDS011;33524;55.434;38.520;2024-02-28T01:52:39;7.40;;;4.10;;
47760;SDS011;33524;55.434;38.520;2024-02-28T01:55:08;6.90;;;3.65;;
47760;SDS011;33524;55.434;38.520;2024-02-28T01:57:37;7.68;;;4.37;;
47760;SDS011;33524;55.434;38.520;2024-02-28T06:38:08;5.22;;;2.83;;
47760;SDS011;33524;55.434;38.520;2024-02-28T06:40:36;6.00;;;3.08;;
47760;SDS011;33524;55.434;38.520;2024-02-28T06:43:04;5.97;;;3.22;;
47760;SDS011;33524;55.434;38.520;2024-02-28T06:45:32;6.40;;;3.42;;
47760;SDS011;33524;55.434;38.520;2024-02-28T06:48:00;8.80;;;3.47;;
47760;SDS011;33524;55.434;38.520;2024-02-28T06:50:28;7.65;;;5.15;;
47760;SDS011;33524;55.434;38.520;2024-02-28T06:52:57;5.35;;;3.45;;
47760;SDS011;33524;55.434;38.520;2024-02-28T06:55:25;6.97;;;3.62;;
47760;SDS011;33524;55.434;38.520;2024-02-28T06:57:52;6.12;;;3.37;;
47760;SDS011;33524;55.434;38.520;2024-02-28T07:00:21;7.97;;;3.92;;
47760;SDS011;33524;55.434;38.520;2024-02-28T07:02:49;5.55;;;3.60;;
47760;SDS011;33524;55.434;38.520;2024-02-28T07:05:18;7.12;;;3.95;;
47760;SDS011;33524;55.434;38.520;2024-02-28T07:07:46;10.77;;;4.20;;
47760;SDS011;33524;55.434;38.520;2024-02-28T07:10:14;6.30;;;3.22;;
47760;SDS011;33524;55.434;38.520;2024-02-28T07:12:43;7.28;;;4.10;;
47760;SDS011;33524;55.434;38.520;2024-02-28T07:15:11;5.18;;;3.00;;
47760;SDS011;33524;55.434;38.520;2024-02-28T07:17:39;6.28;;;3.55;;
47760;SDS011;33524;55.434;38.520;2024-02-28T07:20:07;5.05;;;2.95;;
47760;SDS011;33524;55.434;38.520;2024-02-28T07:22:37;6.50;;;3.85;;
47760;SDS011;33524;55.434;38.520;2024-02-28T07:25:05;7.30;;;3.67;;
47760;SDS011;33524;55.434;38.520;2024-02-28T07:27:35;4.65;;;2.87;;
47760;SDS011;33524;55.434;38.520;2024-02-28T07:30:03;9.50;;;3.70;;
47760;SDS011;33524;55.434;38.520;2024-02-28T07:32:32;5.80;;;3.30;;
47760;SDS011;33524;55.434;38.520;2024-02-28T07:35:03;6.45;;;2.75;;
47760;SDS011;33524;55.434;38.520;2024-02-28T07:37:31;4.35;;;2.80;;
47760;SDS011;33524;55.434;38.520;2024-02-28T07:39:59;6.43;;;3.45;;
47760;SDS011;33524;55.434;38.520;2024-02-28T07:42:28;5.70;;;3.28;;
47760;SDS011;33524;55.434;38.520;2024-02-28T07:44:57;7.18;;;3.00;;
47760;SDS011;33524;55.434;38.520;2024-02-28T07:47:24;6.93;;;3.37;;
47760;SDS011;33524;55.434;38.520;2024-02-28T07:50:11;7.22;;;3.40;;
47760;SDS011;33524;55.434;38.520;2024-02-28T07:52:39;6.85;;;2.58;;
47760;SDS011;33524;55.434;38.520;2024-02-28T07:55:07;7.93;;;2.80;;
47760;SDS011;33524;55.434;38.520;2024-02-28T07:57:35;5.85;;;2.45;;
47760;SDS011;33524;55.434;38.520;2024-02-28T08:00:04;7.65;;;3.35;;
47760;SDS011;33524;55.434;38.520;2024-02-28T08:02:37;4.45;;;2.22;;
47760;SDS011;33524;55.434;38.520;2024-02-28T08:05:07;7.72;;;3.58;;
47760;SDS011;33524;55.434;38.520;2024-02-28T08:07:35;5.20;;;2.60;;
47760;SDS011;33524;55.434;38.520;2024-02-28T08:10:03;4.97;;;2.78;;
47760;SDS011;33524;55.434;38.520;2024-02-28T08:12:33;6.25;;;2.50;;
47760;SDS011;33524;55.434;38.520;2024-02-28T08:15:01;6.22;;;2.80;;
47760;SDS011;33524;55.434;38.520;2024-02-28T08:17:30;7.10;;;2.50;;
47760;SDS011;33524;55.434;38.520;2024-02-28T08:19:59;5.25;;;3.03;;
47760;SDS011;33524;55.434;38.520;2024-02-28T08:22:27;4.95;;;2.58;;
47760;SDS011;33524;55.434;38.520;2024-02-28T08:24:55;6.10;;;2.83;;
47760;SDS011;33524;55.434;38.520;2024-02-28T08:27:23;4.53;;;2.62;;
47760;SDS011;33524;55.434;38.520;2024-02-28T08:29:51;5.60;;;3.00;;
47760;SDS011;33524;55.434;38.520;2024-02-28T08:32:19;5.18;;;2.92;;
47760;SDS011;33524;55.434;38.520;2024-02-28T08:34:48;5.40;;;3.05;;
47760;SDS011;33524;55.434;38.520;2024-02-28T08:37:16;6.32;;;2.97;;
47760;SDS011;33524;55.434;38.520;2024-02-28T08:39:44;9.70;;;3.53;;
47760;SDS011;33524;55.434;38.520;2024-02-28T08:42:12;6.35;;;2.80;;
47760;SDS011;33524;55.434;38.520;2024-02-28T08:44:40;3.78;;;2.28;;
47760;SDS011;33524;55.434;38.520;2024-02-28T08:47:08;5.03;;;3.15;;
47760;SDS011;33524;55.434;38.520;2024-02-28T08:49:39;8.13;;;3.83;;
47760;SDS011;33524;55.434;38.520;2024-02-28T08:52:07;8.38;;;3.22;;
47760;SDS011;33524;55.434;38.520;2024-02-28T08:54:35;4.32;;;2.30;;
47760;SDS011;33524;55.434;38.520;2024-02-28T08:57:03;5.87;;;3.10;;
47760;SDS011;33524;55.434;38.520;2024-02-28T08:59:31;5.82;;;3.37;;
47760;SDS011;33524;55.434;38.520;2024-02-28T09:01:59;4.07;;;2.37;;
47760;SDS011;33524;55.434;38.520;2024-02-28T09:04:27;9.73;;;3.83;;
47760;SDS011;33524;55.434;38.520;2024-02-28T09:06:56;7.72;;;3.70;;
47760;SDS011;33524;55.434;38.520;2024-02-28T09:09:23;4.43;;;2.55;;
47760;SDS011;33524;55.434;38.520;2024-02-28T09:12:11;5.68;;;3.20;;
47760;SDS011;33524;55.434;38.520;2024-02-28T09:14:40;6.68;;;3.08;;
47760;SDS011;33524;55.434;38.520;2024-02-28T09:17:08;4.65;;;3.12;;
47760;SDS011;33524;55.434;38.520;2024-02-28T09:19:36;7.57;;;3.80;;
47760;SDS011;33524;55.434;38.520;2024-02-28T09:22:04;4.93;;;2.87;;
47760;SDS011;33524;55.434;38.520;2024-02-28T09:24:32;8.05;;;2.70;;
47760;SDS011;33524;55.434;38.520;2024-02-28T09:27:01;8.10;;;2.87;;
47760;SDS011;33524;55.434;38.520;2024-02-28T09:29:29;6.35;;;3.40;;
47760;SDS011;33524;55.434;38.520;2024-02-28T09:31:58;6.00;;;3.03;;
47760;SDS011;33524;55.434;38.520;2024-02-28T09:34:26;11.77;;;2.75;;
47760;SDS011;33524;55.434;38.520;2024-02-28T09:36:54;6.97;;;3.55;;
47760;SDS011;33524;55.434;38.520;2024-02-28T09:39:22;6.12;;;2.50;;
47760;SDS011;33524;55.434;38.520;2024-02-28T09:41:50;6.07;;;3.33;;
47760;SDS011;33524;55.434;38.520;2024-02-28T09:44:19;12.20;;;3.45;;
47760;SDS011;33524;55.434;38.520;2024-02-28T09:46:51;6.57;;;3.17;;
47760;SDS011;33524;55.434;38.520;2024-02-28T09:49:20;5.18;;;3.78;;
47760;SDS011;33524;55.434;38.520;2024-02-28T09:51:52;6.05;;;3.60;;
47760;SDS011;33524;55.434;38.520;2024-02-28T09:54:21;5.60;;;3.20;;
47760;SDS011;33524;55.434;38.520;2024-02-28T09:56:48;7.57;;;3.42;;
47760;SDS011;33524;55.434;38.520;2024-02-28T09:59:18;6.68;;;3.15;;
47760;SDS011;33524;55.434;38.520;2024-02-28T10:01:57;4.12;;;3.03;;
47760;SDS011;33524;55.434;38.520;2024-02-28T10:04:27;4.07;;;2.70;;
47760;SDS011;33524;55.434;38.520;2024-02-28T10:06:56;4.85;;;2.85;;
47760;SDS011;33524;55.434;38.520;2024-02-28T10:09:24;4.25;;;2.45;;
47760;SDS011;33524;55.434;38.520;2024-02-28T10:11:54;8.57;;;3.92;;
47760;SDS011;33524;55.434;38.520;2024-02-28T10:14:22;5.60;;;3.90;;
47760;SDS011;33524;55.434;38.520;2024-02-28T10:16:51;6.57;;;3.12;;
47760;SDS011;33524;55.434;38.520;2024-02-28T10:19:20;14.07;;;3.92;;
47760;SDS011;33524;55.434;38.520;2024-02-28T10:21:47;6.32;;;3.33;;
47760;SDS011;33524;55.434;38.520;2024-02-28T10:24:15;5.47;;;2.78;;
47760;SDS011;33524;55.434;38.520;2024-02-28T10:26:44;7.30;;;3.60;;
47760;SDS011;33524;55.434;38.520;2024-02-28T10:29:15;9.55;;;3.15;;
47760;SDS011;33524;55.434;38.520;2024-02-28T10:31:43;9.35;;;4.28;;
47760;SDS011;33524;55.434;38.520;2024-02-28T10:34:13;8.82;;;3.90;;
47760;SDS011;33524;55.434;38.520;2024-02-28T10:36:44;8.00;;;4.10;;
47760;SDS011;33524;55.434;38.520;2024-02-28T10:39:15;9.38;;;4.03;;
47760;SDS011;33524;55.434;38.520;2024-02-28T10:41:44;7.53;;;3.78;;
47760;SDS011;33524;55.434;38.520;2024-02-28T10:44:16;6.75;;;3.87;;
47760;SDS011;33524;55.434;38.520;2024-02-28T10:46:44;7.30;;;3.60;;
47760;SDS011;33524;55.434;38.520;2024-02-28T10:49:17;6.32;;;3.87;;
47760;SDS011;33524;55.434;38.520;2024-02-28T10:51:45;6.72;;;4.45;;
47760;SDS011;33524;55.434;38.520;2024-02-28T10:54:16;7.30;;;3.90;;
47760;SDS011;33524;55.434;38.520;2024-02-28T10:56:47;4.93;;;2.87;;
47760;SDS011;33524;55.434;38.520;2024-02-28T10:59:16;9.27;;;3.42;;
47760;SDS011;33524;55.434;38.520;2024-02-28T11:01:44;5.95;;;3.70;;
47760;SDS011;33524;55.434;38.520;2024-02-28T11:04:15;8.77;;;3.10;;
47760;SDS011;33524;55.434;38.520;2024-02-28T11:06:51;6.05;;;3.05;;
47760;SDS011;33524;55.434;38.520;2024-02-28T11:09:23;5.85;;;3.70;;
47760;SDS011;33524;55.434;38.520;2024-02-28T11:11:54;4.97;;;4.07;;
47760;SDS011;33524;55.434;38.520;2024-02-28T11:14:24;5.68;;;3.92;;
47760;SDS011;33524;55.434;38.520;2024-02-28T11:17:04;6.40;;;3.53;;
47760;SDS011;33524;55.434;38.520;2024-02-28T11:19:33;6.30;;;3.87;;
47760;SDS011;33524;55.434;38.520;2024-02-28T11:22:04;11.90;;;3.92;;
47760;SDS011;33524;55.434;38.520;2024-02-28T11:24:34;5.80;;;3.53;;
47760;SDS011;33524;55.434;38.520;2024-02-28T11:27:04;10.05;;;4.53;;
47760;SDS011;33524;55.434;38.520;2024-02-28T11:29:34;7.32;;;3.85;;
47760;SDS011;33524;55.434;38.520;2024-02-28T11:32:02;9.02;;;4.30;;
47760;SDS011;33524;55.434;38.520;2024-02-28T11:34:31;9.45;;;4.35;;
47760;SDS011;33524;55.434;38.520;2024-02-28T11:36:59;6.95;;;3.60;;
47760;SDS011;33524;55.434;38.520;2024-02-28T11:39:28;5.43;;;3.28;;
47760;SDS011;33524;55.434;38.520;2024-02-28T11:42:12;8.30;;;3.92;;
47760;SDS011;33524;55.434;38.520;2024-02-28T11:44:41;7.47;;;3.97;;
47760;SDS011;33524;55.434;38.520;2024-02-28T11:47:11;8.15;;;4.70;;
47760;SDS011;33524;55.434;38.520;2024-02-28T11:49:39;6.70;;;4.07;;
47760;SDS011;33524;55.434;38.520;2024-02-28T11:52:07;6.90;;;3.40;;
47760;SDS011;33524;55.434;38.520;2024-02-28T11:54:35;6.82;;;4.18;;
47760;SDS011;33524;55.434;38.520;2024-02-28T11:57:03;9.25;;;4.03;;
47760;SDS011;33524;55.434;38.520;2024-02-28T11:59:31;9.27;;;5.32;;
47760;SDS011;33524;55.434;38.520;2024-02-28T12:01:59;8.43;;;5.22;;
47760;SDS011;33524;55.434;38.520;2024-02-28T12:04:28;12.32;;;6.10;;
47760;SDS011;33524;55.434;38.520;2024-02-28T12:06:57;7.43;;;4.97;;
47760;SDS011;33524;55.434;38.520;2024-02-28T12:09:24;10.55;;;5.70;;
47760;SDS011;33524;55.434;38.520;2024-02-28T12:12:08;13.32;;;8.73;;
47760;SDS011;33524;55.434;38.520;2024-02-28T12:14:36;15.95;;;8.98;;
47760;SDS011;33524;55.434;38.520;2024-02-28T12:17:10;12.85;;;6.72;;
47760;SDS011;33524;55.434;38.520;2024-02-28T12:19:38;9.00;;;5.47;;
47760;SDS011;33524;55.434;38.520;2024-02-28T12:22:06;7.97;;;3.97;;
47760;SDS011;33524;55.434;38.520;2024-02-28T12:24:35;9.07;;;4.97;;
47760;SDS011;33524;55.434;38.520;2024-02-28T12:27:04;7.10;;;3.92;;
47760;SDS011;33524;55.434;38.520;2024-02-28T12:29:32;7.22;;;4.45;;
47760;SDS011;33524;55.434;38.520;2024-02-28T12:32:00;8.23;;;4.45;;
47760;SDS011;33524;55.434;38.520;2024-02-28T12:34:28;6.93;;;5.03;;
47760;SDS011;33524;55.434;38.520;2024-02-28T12:36:56;5.45;;;3.55;;
47760;SDS011;33524;55.434;38.520;2024-02-28T12:39:25;8.05;;;3.87;;
47760;SDS011;33524;55.434;38.520;2024-02-28T12:41:54;6.07;;;3.83;;
47760;SDS011;33524;55.434;38.520;2024-02-28T12:44:22;11.73;;;4.85;;
47760;SDS011;33524;55.434;38.520;2024-02-28T12:46:50;5.45;;;4.12;;
47760;SDS011;33524;55.434;38.520;2024-02-28T12:49:18;9.25;;;4.60;;
47760;SDS011;33524;55.434;38.520;2024-02-28T12:51:46;6.10;;;3.47;;
47760;SDS011;33524;55.434;38.520;2024-02-28T12:54:16;5.60;;;3.90;;
47760;SDS011;33524;55.434;38.520;2024-02-28T12:56:46;7.78;;;4.12;;
47760;SDS011;33524;55.434;38.520;2024-02-28T12:59:14;7.12;;;3.53;;
47760;SDS011;33524;55.434;38.520;2024-02-28T13:01:43;5.22;;;3.60;;
47760;SDS011;33524;55.434;38.520;2024-02-28T13:04:12;5.97;;;3.83;;
47760;SDS011;33524;55.434;38.520;2024-02-28T13:06:40;6.53;;;3.42;;
47760;SDS011;33524;55.434;38.520;2024-02-28T13:09:08;11.40;;;3.75;;
47760;SDS011;33524;55.434;38.520;2024-02-28T13:11:40;6.70;;;3.45;;
47760;SDS011;33524;55.434;38.520;2024-02-28T13:14:08;7.37;;;3.75;;
47760;SDS011;33524;55.434;38.520;2024-02-28T13:16:38;10.57;;;4.03;;
47760;SDS011;33524;55.434;38.520;2024-02-28T13:19:06;10.68;;;4.90;;
47760;SDS011;33524;55.434;38.520;2024-02-28T13:21:34;8.98;;;4.97;;
47760;SDS011;33524;55.434;38.520;2024-02-28T13:24:04;9.98;;;4.35;;
47760;SDS011;33524;55.434;38.520;2024-02-28T13:26:33;7.87;;;4.22;;
47760;SDS011;33524;55.434;38.520;2024-02-28T13:29:01;7.82;;;4.70;;
47760;SDS011;33524;55.434;38.520;2024-02-28T13:31:29;8.43;;;4.75;;
47760;SDS011;33524;55.434;38.520;2024-02-28T13:33:56;9.50;;;4.28;;
47760;SDS011;33524;55.434;38.520;2024-02-28T13:36:25;7.70;;;4.35;;
47760;SDS011;33524;55.434;38.520;2024-02-28T13:38:53;6.53;;;3.70;;
47760;SDS011;33524;55.434;38.520;2024-02-28T13:41:21;6.40;;;4.12;;
47760;SDS011;33524;55.434;38.520;2024-02-28T13:43:49;6.90;;;4.32;;
47760;SDS011;33524;55.434;38.520;2024-02-28T13:46:17;8.68;;;4.40;;
47760;SDS011;33524;55.434;38.520;2024-02-28T13:48:47;8.45;;;4.85;;
47760;SDS011;33524;55.434;38.520;2024-02-28T13:51:15;9.50;;;5.65;;
47760;SDS011;33524;55.434;38.520;2024-02-28T13:53:44;9.48;;;5.03;;
47760;SDS011;33524;55.434;38.520;2024-02-28T13:56:12;8.93;;;4.85;;
47760;SDS011;33524;55.434;38.520;2024-02-28T13:58:40;11.07;;;5.82;;
47760;SDS011;33524;55.434;38.520;2024-02-28T14:01:18;10.15;;;4.68;;
47760;SDS011;33524;55.434;38.520;2024-02-28T14:03:47;8.32;;;5.00;;
47760;SDS011;33524;55.434;38.520;2024-02-28T14:06:15;9.00;;;5.12;;
47760;SDS011;33524;55.434;38.520;2024-02-28T14:08:44;10.68;;;5.85;;
47760;SDS011;33524;55.434;38.520;2024-02-28T14:11:12;10.50;;;4.80;;
47760;SDS011;33524;55.434;38.520;2024-02-28T14:13:43;10.05;;;5.53;;
47760;SDS011;33524;55.434;38.520;2024-02-28T14:16:12;13.27;;;5.37;;
47760;SDS011;33524;55.434;38.520;2024-02-28T14:18:40;9.88;;;5.45;;
47760;SDS011;33524;55.434;38.520;2024-02-28T14:21:08;12.57;;;5.47;;
47760;SDS011;33524;55.434;38.520;2024-02-28T14:23:36;8.68;;;5.32;;
47760;SDS011;33524;55.434;38.520;2024-02-28T14:26:04;9.15;;;5.22;;
47760;SDS011;33524;55.434;38.520;2024-02-28T14:28:32;9.88;;;5.70;;
47760;SDS011;33524;55.434;38.520;2024-02-28T14:31:00;12.07;;;6.50;;
47760;SDS011;33524;55.434;38.520;2024-02-28T14:33:29;10.23;;;6.03;;
47760;SDS011;33524;55.434;38.520;2024-02-28T14:35:59;8.82;;;5.05;;
47760;SDS011;33524;55.434;38.520;2024-02-28T14:38:28;9.50;;;5.80;;
47760;SDS011;33524;55.434;38.520;2024-02-28T14:40:57;8.20;;;5.22;;
47760;SDS011;33524;55.434;38.520;2024-02-28T14:43:28;9.98;;;5.72;;
47760;SDS011;33524;55.434;38.520;2024-02-28T14:45:57;9.82;;;5.65;;
47760;SDS011;33524;55.434;38.520;2024-02-28T14:48:26;11.23;;;5.12;;
47760;SDS011;33524;55.434;38.520;2024-02-28T14:50:55;8.20;;;4.97;;
47760;SDS011;33524;55.434;38.520;2024-02-28T14:53:26;9.05;;;5.57;;
47760;SDS011;33524;55.434;38.520;2024-02-28T16:27:13;5.72;;;4.07;;
47760;SDS011;33524;55.434;38.520;2024-02-28T16:29:42;10.38;;;4.93;;
47760;SDS011;33524;55.434;38.520;2024-02-28T16:32:10;7.70;;;4.28;;
47760;SDS011;33524;55.434;38.520;2024-02-28T16:34:38;7.60;;;4.05;;
47760;SDS011;33524;55.434;38.520;2024-02-28T16:37:07;7.25;;;3.95;;
47760;SDS011;33524;55.434;38.520;2024-02-28T16:39:35;12.02;;;4.78;;
47760;SDS011;33524;55.434;38.520;2024-02-28T16:42:03;6.70;;;3.80;;
47760;SDS011;33524;55.434;38.520;2024-02-28T16:44:32;6.68;;;3.72;;
47760;SDS011;33524;55.434;38.520;2024-02-28T16:47:00;7.35;;;3.58;;
47760;SDS011;33524;55.434;38.520;2024-02-28T16:49:47;7.62;;;3.87;;
47760;SDS011;33524;55.434;38.520;2024-02-28T16:52:33;6.95;;;3.28;;
47760;SDS011;33524;55.434;38.520;2024-02-28T16:55:01;5.97;;;3.67;;
47760;SDS011;33524;55.434;38.520;2024-02-28T16:57:29;6.37;;;3.05;;
47760;SDS011;33524;55.434;38.520;2024-02-28T16:59:58;5.80;;;3.37;;
47760;SDS011;33524;55.434;38.520;2024-02-28T17:02:44;8.13;;;3.45;;
47760;SDS011;33524;55.434;38.520;2024-02-28T17:05:13;5.90;;;3.62;;
47760;SDS011;33524;55.434;38.520;2024-02-28T17:07:41;5.75;;;3.47;;
47760;SDS011;33524;55.434;38.520;2024-02-28T17:10:09;9.23;;;3.90;;
47760;SDS011;33524;55.434;38.520;2024-02-28T17:12:37;9.00;;;4.68;;
47760;SDS011;33524;55.434;38.520;2024-02-28T17:15:05;6.45;;;3.85;;
47760;SDS011;33524;55.434;38.520;2024-02-28T17:17:52;5.75;;;3.12;;
47760;SDS011;33524;55.434;38.520;2024-02-28T17:20:38;9.43;;;3.42;;
47760;SDS011;33524;55.434;38.520;2024-02-28T17:23:06;6.82;;;3.62;;
47760;SDS011;33524;55.434;38.520;2024-02-28T17:25:34;11.70;;;3.72;;
47760;SDS011;33524;55.434;38.520;2024-02-28T17:28:02;7.25;;;3.47;;
47760;SDS011;33524;55.434;38.520;2024-02-28T17:30:48;5.80;;;3.47;;
47760;SDS011;33524;55.434;38.520;2024-02-28T17:33:52;7.60;;;3.08;;
47760;SDS011;33524;55.434;38.520;2024-02-28T17:36:39;10.88;;;4.72;;
47760;SDS011;33524;55.434;38.520;2024-02-28T17:39:09;13.15;;;3.85;;
47760;SDS011;33524;55.434;38.520;2024-02-28T17:41:38;9.57;;;3.75;;
47760;SDS011;33524;55.434;38.520;2024-02-28T17:44:23;6.97;;;3.00;;
47760;SDS011;33524;55.434;38.520;2024-02-28T17:46:51;9.40;;;3.78;;
47760;SDS011;33524;55.434;38.520;2024-02-28T17:49:19;9.38;;;4.18;;
47760;SDS011;33524;55.434;38.520;2024-02-28T17:51:48;6.62;;;3.33;;
47760;SDS011;33524;55.434;38.520;2024-02-28T17:54:16;10.30;;;3.95;;
47760;SDS011;33524;55.434;38.520;2024-02-28T17:56:44;8.48;;;3.55;;
47760;SDS011;33524;55.434;38.520;2024-02-28T17:59:12;9.18;;;4.07;;
47760;SDS011;33524;55.434;38.520;2024-02-28T18:01:40;5.55;;;3.00;;
47760;SDS011;33524;55.434;38.520;2024-02-28T18:04:08;6.70;;;3.95;;
47760;SDS011;33524;55.434;38.520;2024-02-28T18:06:37;10.65;;;4.00;;
47760;SDS011;33524;55.434;38.520;2024-02-28T18:09:04;11.25;;;3.87;;
47760;SDS011;33524;55.434;38.520;2024-02-28T18:11:34;6.97;;;3.08;;
47760;SDS011;33524;55.434;38.520;2024-02-28T18:14:20;5.93;;;3.20;;
47760;SDS011;33524;55.434;38.520;2024-02-28T18:17:07;8.75;;;3.67;;
47760;SDS011;33524;55.434;38.520;2024-02-28T18:22:39;9.98;;;4.15;;
47760;SDS011;33524;55.434;38.520;2024-02-28T18:25:07;10.05;;;3.70;;
47760;SDS011;33524;55.434;38.520;2024-02-28T18:27:35;4.97;;;2.62;;
47760;SDS011;33524;55.434;38.520;2024-02-28T18:30:04;7.97;;;3.30;;
47760;SDS011;33524;55.434;38.520;2024-02-28T18:33:09;6.50;;;3.05;;
47760;SDS011;33524;55.434;38.520;2024-02-28T18:35:38;9.55;;;3.62;;
47760;SDS011;33524;55.434;38.520;2024-02-28T18:38:06;7.93;;;3.53;;
47760;SDS011;33524;55.434;38.520;2024-02-28T18:40:34;6.30;;;2.97;;
47760;SDS011;33524;55.434;38.520;2024-02-28T18:43:02;8.98;;;3.30;;
47760;SDS011;33524;55.434;38.520;2024-02-28T18:45:30;6.60;;;2.47;;
47760;SDS011;33524;55.434;38.520;2024-02-28T18:47:58;6.50;;;3.30;;
47760;SDS011;33524;55.434;38.520;2024-02-28T18:50:27;5.87;;;2.50;;
47760;SDS011;33524;55.434;38.520;2024-02-28T18:52:56;9.85;;;3.08;;
47760;SDS011;33524;55.434;38.520;2024-02-28T18:55:24;6.90;;;3.47;;
47760;SDS011;33524;55.434;38.520;2024-02-28T18:57:52;17.15;;;4.10;;
47760;SDS011;33524;55.434;38.520;2024-02-28T19:00:25;4.15;;;2.42;;
47760;SDS011;33524;55.434;38.520;2024-02-28T19:02:56;8.13;;;3.35;;
47760;SDS011;33524;55.434;38.520;2024-02-28T19:05:25;6.47;;;3.12;;
47760;SDS011;33524;55.434;38.520;2024-02-28T19:07:53;6.65;;;2.85;;
47760;SDS011;33524;55.434;38.520;2024-02-28T19:10:21;9.73;;;3.10;;
47760;SDS011;33524;55.434;38.520;2024-02-28T19:12:49;11.18;;;3.47;;
47760;SDS011;33524;55.434;38.520;2024-02-28T19:15:17;9.30;;;3.30;;
47760;SDS011;33524;55.434;38.520;2024-02-28T19:17:46;10.25;;;3.72;;
47760;SDS011;33524;55.434;38.520;2024-02-28T19:20:14;8.18;;;3.33;;
47760;SDS011;33524;55.434;38.520;2024-02-28T19:22:42;6.68;;;3.45;;
47760;SDS011;33524;55.434;38.520;2024-02-28T19:25:10;11.88;;;3.08;;
47760;SDS011;33524;55.434;38.520;2024-02-28T19:27:39;11.65;;;3.42;;
47760;SDS011;33524;55.434;38.520;2024-02-28T19:30:07;6.45;;;3.10;;
47760;SDS011;33524;55.434;38.520;2024-02-28T19:32:36;7.62;;;2.97;;
47760;SDS011;33524;55.434;38.520;2024-02-28T19:35:07;6.95;;;3.10;;
47760;SDS011;33524;55.434;38.520;2024-02-28T19:37:36;9.57;;;3.58;;
47760;SDS011;33524;55.434;38.520;2024-02-28T19:40:04;7.22;;;3.28;;
47760;SDS011;33524;55.434;38.520;2024-02-28T19:42:35;8.27;;;3.08;;
47760;SDS011;33524;55.434;38.520;2024-02-28T19:45:04;9.57;;;3.42;;
47760;SDS011;33524;55.434;38.520;2024-02-28T19:47:33;8.32;;;4.40;;
47760;SDS011;33524;55.434;38.520;2024-02-28T19:50:01;9.57;;;3.92;;
47760;SDS011;33524;55.434;38.520;2024-02-28T19:52:30;9.60;;;4.55;;
47760;SDS011;33524;55.434;38.520;2024-02-28T19:54:58;13.05;;;4.53;;
47760;SDS011;33524;55.434;38.520;2024-02-28T19:57:28;10.80;;;3.62;;
47760;SDS011;33524;55.434;38.520;2024-02-28T19:59:56;8.73;;;3.50;;
47760;SDS011;33524;55.434;38.520;2024-02-28T20:02:24;10.32;;;3.72;;
47760;SDS011;33524;55.434;38.520;2024-02-28T20:04:54;11.10;;;3.75;;
47760;SDS011;33524;55.434;38.520;2024-02-28T20:07:22;6.80;;;2.83;;
47760;SDS011;33524;55.434;38.520;2024-02-28T20:09:49;8.82;;;3.33;;
47760;SDS011;33524;55.434;38.520;2024-02-28T20:12:18;6.30;;;2.92;;
47760;SDS011;33524;55.434;38.520;2024-02-28T20:14:46;7.20;;;3.67;;
47760;SDS011;33524;55.434;38.520;2024-02-28T20:17:15;7.00;;;3.75;;
47760;SDS011;33524;55.434;38.520;2024-02-28T20:19:44;5.20;;;2.87;;
47760;SDS011;33524;55.434;38.520;2024-02-28T20:22:12;7.40;;;3.00;;
47760;SDS011;33524;55.434;38.520;2024-02-28T20:24:41;11.40;;;4.43;;
47760;SDS011;33524;55.434;38.520;2024-02-28T20:27:10;7.72;;;2.60;;
47760;SDS011;33524;55.434;38.520;2024-02-28T20:29:38;7.75;;;3.80;;
47760;SDS011;33524;55.434;38.520;2024-02-28T20:32:06;6.80;;;3.40;;
47760;SDS011;33524;55.434;38.520;2024-02-28T20:34:35;8.15;;;3.62;;
47760;SDS011;33524;55.434;38.520;2024-02-28T20:37:05;9.23;;;3.72;;
47760;SDS011;33524;55.434;38.520;2024-02-28T20:39:33;5.28;;;3.10;;
47760;SDS011;33524;55.434;38.520;2024-02-28T20:42:01;7.97;;;4.00;;
47760;SDS011;33524;55.434;38.520;2024-02-28T20:44:32;12.45;;;4.30;;
47760;SDS011;33524;55.434;38.520;2024-02-28T20:47:00;7.07;;;3.85;;
47760;SDS011;33524;55.434;38.520;2024-02-28T20:49:28;7.85;;;3.47;;
47760;SDS011;33524;55.434;38.520;2024-02-28T20:51:56;7.35;;;3.37;;
47760;SDS011;33524;55.434;38.520;2024-02-28T20:54:27;11.63;;;4.07;;
47760;SDS011;33524;55.434;38.520;2024-02-28T20:56:55;10.10;;;3.22;;
47760;SDS011;33524;55.434;38.520;2024-02-28T20:59:35;14.57;;;4.65;;
47760;SDS011;33524;55.434;38.520;2024-02-28T21:02:04;20.75;;;4.55;;